Terminal Aerodrome Forecast
Issued by NWS

Home | Current Version | Previous Version | Graphics & Text | Print | Product List | Glossary On
Versions: 1 2 3 4 5 6 7 8 9 10 11 12 13 14 15 16 17 18 19 20
137
FTUS43 KGRB 280212 AAA
TAFCWA
TAF AMD
KCWA 280212Z 2802/2824 31006KT P6SM VCSH SCT006 OVC012
      TEMPO 2802/2806 BKN006
     FM281000 35007KT P6SM SCT008 OVC015
     FM281600 02011G17KT P6SM BKN025
     FM282200 02008KT P6SM BKN035=

USA.gov is the U.S. government's official web portal to all federal, state and local government web resources and services.